createdAt,value
2018-10-17T00:00:55.966Z,21.60
2018-10-17T00:03:38.212Z,23.52
2018-10-17T00:06:20.106Z,22.77
2018-10-17T00:09:02.553Z,22.52
2018-10-17T00:11:45.596Z,24.90
2018-10-17T00:14:27.470Z,23.42
2018-10-17T00:17:10.005Z,22.70
2018-10-17T00:19:52.646Z,23.27
2018-10-17T00:22:34.862Z,23.22
2018-10-17T00:25:16.964Z,21.25
2018-10-17T00:27:59.354Z,22.85
2018-10-17T00:30:41.144Z,23.87
2018-10-17T00:33:23.071Z,22.48
2018-10-17T00:36:05.265Z,24.55
2018-10-17T00:38:47.909Z,22.58
2018-10-17T00:41:30.045Z,22.95
2018-10-17T00:44:12.659Z,22.70
2018-10-17T00:46:54.349Z,22.60
2018-10-17T00:49:37.068Z,22.07
2018-10-17T00:52:18.766Z,23.85
2018-10-17T00:55:00.611Z,23.07
2018-10-17T00:57:42.882Z,23.47
2018-10-17T01:00:24.942Z,23.67
2018-10-17T01:03:07.083Z,23.00
2018-10-17T01:05:48.907Z,22.25
2018-10-17T01:08:30.875Z,23.18
2018-10-17T01:11:13.418Z,23.73
2018-10-17T01:13:57.166Z,24.02
2018-10-17T01:16:39.697Z,24.43
2018-10-17T01:19:23.264Z,24.72
2018-10-17T01:22:05.471Z,23.92
2018-10-17T01:24:47.256Z,23.70
2018-10-17T01:27:29.189Z,23.22
2018-10-17T01:30:11.088Z,23.62
2018-10-17T01:32:53.458Z,23.65
2018-10-17T01:35:35.966Z,22.13
2018-10-17T01:38:18.174Z,23.60
2018-10-17T01:40:59.985Z,22.30
2018-10-17T01:43:42.168Z,22.90
2018-10-17T01:46:24.274Z,22.58
2018-10-17T01:49:06.477Z,24.45
2018-10-17T01:51:48.658Z,24.18
2018-10-17T01:54:30.375Z,23.80
2018-10-17T01:57:13.281Z,24.47
2018-10-17T01:59:55.866Z,23.90
2018-10-17T02:02:38.273Z,22.17
2018-10-17T02:05:19.966Z,24.12
2018-10-17T02:08:01.707Z,25.35
2018-10-17T02:10:48.161Z,23.62
2018-10-17T02:13:30.036Z,24.15
2018-10-17T02:16:11.811Z,22.98
2018-10-17T02:18:54.819Z,24.50
2018-10-17T02:21:37.425Z,23.55
2018-10-17T02:24:19.395Z,24.32
2018-10-17T02:27:01.547Z,24.07
2018-10-17T02:29:43.785Z,24.02
2018-10-17T02:32:26.980Z,24.27
2018-10-17T02:35:15.547Z,24.25
2018-10-17T02:37:57.658Z,23.95
2018-10-17T02:40:39.706Z,23.55
2018-10-17T02:43:21.898Z,25.10
2018-10-17T02:46:03.865Z,24.85
2018-10-17T02:48:46.066Z,23.65
2018-10-17T02:51:27.821Z,23.90
2018-10-17T02:54:09.886Z,23.67
2018-10-17T02:56:52.067Z,24.20
2018-10-17T02:59:33.783Z,24.45
2018-10-17T03:02:15.895Z,25.12
2018-10-17T03:04:58.161Z,25.05
2018-10-17T03:07:40.638Z,25.68
2018-10-17T03:10:22.386Z,25.35
2018-10-17T03:13:04.559Z,25.43
2018-10-17T03:15:47.011Z,24.65
2018-10-17T03:18:29.200Z,25.75
2018-10-17T03:21:11.252Z,24.85
2018-10-17T03:23:52.738Z,24.23
2018-10-17T03:26:35.703Z,26.52
2018-10-17T03:29:18.223Z,25.23
2018-10-17T03:32:00.561Z,24.72
2018-10-17T03:34:42.412Z,26.35
2018-10-17T03:37:24.571Z,25.02
2018-10-17T03:40:07.207Z,26.33
2018-10-17T03:42:49.059Z,24.23
2018-10-17T03:45:30.876Z,25.32
2018-10-17T03:48:13.346Z,26.15
2018-10-17T03:50:55.068Z,25.25
2018-10-17T03:53:36.858Z,25.35
2018-10-17T03:56:18.766Z,25.97
2018-10-17T03:59:00.882Z,26.50
2018-10-17T04:01:44.175Z,25.37
2018-10-17T04:04:26.857Z,26.55
2018-10-17T04:07:08.831Z,25.65
2018-10-17T04:09:51.188Z,25.77
2018-10-17T04:12:33.296Z,25.75
2018-10-17T04:15:15.615Z,26.10
2018-10-17T04:17:57.617Z,28.12
2018-10-17T04:20:40.673Z,28.30
2018-10-17T04:23:23.823Z,28.65
2018-10-17T04:26:05.698Z,28.12
2018-10-17T04:28:48.467Z,28.77
2018-10-17T04:31:30.330Z,28.62
2018-10-17T04:34:15.002Z,28.10
2018-10-17T04:36:57.435Z,29.32
2018-10-17T04:39:40.551Z,28.50
2018-10-17T04:42:22.436Z,27.73
2018-10-17T04:45:06.639Z,29.40
2018-10-17T04:47:48.597Z,28.75
2018-10-17T04:50:30.446Z,28.95
2018-10-17T04:53:12.651Z,29.40
2018-10-17T04:55:54.652Z,29.02
2018-10-17T04:58:36.845Z,28.25
2018-10-17T05:01:18.578Z,27.13
2018-10-17T05:04:01.143Z,28.47
2018-10-17T05:06:42.945Z,27.00
2018-10-17T05:09:25.054Z,26.85
2018-10-17T05:12:07.323Z,27.85
2018-10-17T05:14:49.367Z,27.35
2018-10-17T05:17:31.195Z,28.23
2018-10-17T05:20:12.966Z,27.62
2018-10-17T05:22:55.958Z,27.60
2018-10-17T05:25:37.992Z,26.35
2018-10-17T05:28:21.075Z,27.45
2018-10-17T05:31:03.148Z,27.48
2018-10-17T05:33:45.166Z,27.50
2018-10-17T05:36:27.907Z,27.52
2018-10-17T05:39:10.670Z,26.57
2018-10-17T05:41:52.787Z,26.65
2018-10-17T05:44:35.052Z,26.35
2018-10-17T05:47:17.801Z,28.07
2018-10-17T05:50:00.071Z,27.60
2018-10-17T05:52:42.066Z,27.10
2018-10-17T05:55:23.874Z,27.00
2018-10-17T05:58:06.095Z,26.50
2018-10-17T06:00:47.954Z,28.02
2018-10-17T06:03:29.923Z,27.27
2018-10-17T06:06:11.400Z,26.68
2018-10-17T06:08:53.548Z,26.60
2018-10-17T06:11:37.016Z,27.60
2018-10-17T06:14:19.584Z,28.83
2018-10-17T06:17:01.481Z,28.32
2018-10-17T06:19:43.746Z,28.67
2018-10-17T06:22:25.952Z,28.75
2018-10-17T06:25:10.027Z,27.55
2018-10-17T06:27:52.710Z,26.77
2018-10-17T06:30:36.433Z,25.37
2018-10-17T06:33:19.329Z,25.65
2018-10-17T06:36:02.035Z,25.52
2018-10-17T06:38:44.223Z,25.43
2018-10-17T06:41:26.795Z,24.55
2018-10-17T06:44:09.017Z,25.43
2018-10-17T06:46:51.439Z,25.55
2018-10-17T06:49:34.364Z,25.10
2018-10-17T06:52:16.491Z,27.22
2018-10-17T06:54:58.583Z,27.13
2018-10-17T06:57:41.469Z,25.88
2018-10-17T07:00:23.564Z,26.93
2018-10-17T07:03:05.567Z,26.10
2018-10-17T07:05:47.601Z,26.30
2018-10-17T07:08:29.453Z,25.48
2018-10-17T07:11:12.048Z,25.75
2018-10-17T07:13:54.041Z,25.97
2018-10-17T07:16:36.185Z,24.63
2018-10-17T07:19:18.602Z,25.68
2018-10-17T07:22:00.929Z,25.40
2018-10-17T07:24:43.132Z,24.75
2018-10-17T07:27:25.203Z,24.30
2018-10-17T07:30:08.023Z,23.80
2018-10-17T07:32:50.255Z,22.73
2018-10-17T07:35:32.440Z,23.53
2018-10-17T07:38:14.213Z,22.03
2018-10-17T07:40:57.044Z,21.27
2018-10-17T07:43:39.757Z,20.83
2018-10-17T07:46:22.026Z,22.03
2018-10-17T07:49:04.325Z,22.40
2018-10-17T07:51:46.783Z,22.23
2018-10-17T07:54:29.423Z,21.63
2018-10-17T07:57:11.091Z,21.73
2018-10-17T07:59:53.552Z,21.93
2018-10-17T08:02:35.083Z,22.60
2018-10-17T08:05:17.626Z,21.23
2018-10-17T08:07:59.787Z,19.60
2018-10-17T08:10:41.888Z,19.37
2018-10-17T08:13:23.427Z,20.93
2018-10-17T08:16:06.267Z,21.70
2018-10-17T08:18:48.084Z,21.40
2018-10-17T08:21:30.215Z,22.00
2018-10-17T08:24:11.721Z,21.57
2018-10-17T08:26:54.909Z,21.97
2018-10-17T08:29:36.662Z,20.93
2018-10-17T08:32:18.901Z,20.83
2018-10-17T08:35:00.380Z,21.33
2018-10-17T08:37:42.643Z,21.60
2018-10-17T08:40:24.020Z,19.90
2018-10-17T08:43:07.149Z,20.93
2018-10-17T08:45:49.155Z,21.10
2018-10-17T08:48:30.850Z,19.10
2018-10-17T08:51:12.841Z,20.47
2018-10-17T08:53:54.354Z,18.90
2018-10-17T08:56:36.974Z,18.17
2018-10-17T08:59:18.563Z,18.23
2018-10-17T09:02:01.718Z,19.33
2018-10-17T09:04:45.087Z,18.27
2018-10-17T09:07:27.064Z,19.50
2018-10-17T09:10:09.831Z,19.20
2018-10-17T09:12:52.076Z,18.20
2018-10-17T09:15:38.379Z,18.40
2018-10-17T09:18:16.199Z,19.33
2018-10-17T09:20:58.417Z,18.27
2018-10-17T09:23:42.600Z,18.83
2018-10-17T09:26:25.162Z,19.00
2018-10-17T09:29:07.455Z,18.87
2018-10-17T09:31:49.413Z,18.60
2018-10-17T09:34:32.022Z,19.87
2018-10-17T09:37:14.168Z,19.47
2018-10-17T09:39:55.640Z,18.50
2018-10-17T09:42:37.862Z,18.67
2018-10-17T09:45:21.626Z,19.20
2018-10-17T09:48:03.424Z,19.23
2018-10-17T09:50:45.535Z,19.07
2018-10-17T09:53:28.824Z,18.00
2018-10-17T09:56:12.110Z,17.93
2018-10-17T09:58:54.115Z,17.87
2018-10-17T10:01:41.184Z,19.03
2018-10-17T10:04:23.765Z,17.53
2018-10-17T10:07:09.270Z,19.07
2018-10-17T10:09:50.864Z,19.00
2018-10-17T10:12:32.576Z,18.13
2018-10-17T10:15:14.638Z,17.57
2018-10-17T10:17:56.573Z,19.20
2018-10-17T10:20:38.289Z,17.70
2018-10-17T10:23:20.215Z,18.10
2018-10-17T10:26:02.337Z,17.27
2018-10-17T10:28:44.591Z,17.90
2018-10-17T10:31:29.902Z,17.87
2018-10-17T10:34:12.508Z,16.63
2018-10-17T10:36:54.420Z,17.93
2018-10-17T10:39:36.666Z,17.37
2018-10-17T10:42:18.468Z,17.87
2018-10-17T10:45:01.900Z,16.77
2018-10-17T10:47:43.347Z,16.93
2018-10-17T10:50:25.752Z,16.80
2018-10-17T10:53:07.498Z,16.67
2018-10-17T10:55:50.255Z,16.93
2018-10-17T10:58:32.348Z,16.30
2018-10-17T11:01:14.409Z,16.90
2018-10-17T11:03:55.982Z,16.53
2018-10-17T11:06:37.434Z,17.27
2018-10-17T11:09:19.978Z,15.97
2018-10-17T11:12:02.363Z,16.83
2018-10-17T11:14:44.488Z,16.27
2018-10-17T11:17:27.590Z,17.23
2018-10-17T11:20:09.753Z,16.60
2018-10-17T11:22:51.601Z,16.40
2018-10-17T11:25:33.251Z,17.77
2018-10-17T11:28:15.570Z,16.50
2018-10-17T11:30:57.330Z,16.23
2018-10-17T11:33:40.023Z,17.20
2018-10-17T11:36:22.332Z,16.17
2018-10-17T11:39:06.510Z,16.87
2018-10-17T11:41:48.277Z,16.37
2018-10-17T11:44:30.304Z,16.23
2018-10-17T11:47:12.189Z,15.13
2018-10-17T11:49:54.155Z,16.57
2018-10-17T11:52:36.773Z,16.20
2018-10-17T11:55:18.195Z,18.20
2018-10-17T11:58:00.483Z,16.63
2018-10-17T12:00:43.140Z,17.90
2018-10-17T12:03:25.258Z,17.30
2018-10-17T12:06:08.499Z,18.37
2018-10-17T12:08:50.415Z,17.67
2018-10-17T12:11:33.559Z,17.77
2018-10-17T12:14:15.489Z,17.03
2018-10-17T12:16:57.566Z,16.93
2018-10-17T12:19:39.523Z,16.50
2018-10-17T12:22:21.604Z,16.20
2018-10-17T12:25:03.496Z,17.90
2018-10-17T12:27:45.711Z,17.77
2018-10-17T12:30:27.724Z,17.33
2018-10-17T12:33:09.921Z,16.70
2018-10-17T12:35:51.804Z,18.10
2018-10-17T12:38:33.517Z,17.03
2018-10-17T12:41:15.407Z,16.83
2018-10-17T12:43:57.524Z,17.23
2018-10-17T12:46:40.132Z,17.30
2018-10-17T12:49:22.013Z,17.07
2018-10-17T12:52:03.957Z,17.57
2018-10-17T12:54:45.832Z,17.03
2018-10-17T12:57:27.675Z,16.53
2018-10-17T13:00:10.687Z,16.73
2018-10-17T13:02:52.419Z,17.87
2018-10-17T13:05:34.308Z,16.40
2018-10-17T13:08:15.918Z,16.97
2018-10-17T13:10:57.810Z,18.10
2018-10-17T13:13:39.789Z,15.90
2018-10-17T13:16:21.522Z,17.37
2018-10-17T13:19:03.767Z,17.53
2018-10-17T13:21:46.374Z,16.67
2018-10-17T13:24:28.007Z,18.30
2018-10-17T13:27:10.035Z,18.73
2018-10-17T13:29:51.838Z,15.83
2018-10-17T13:32:33.770Z,17.30
2018-10-17T13:35:16.202Z,16.97
2018-10-17T13:37:57.877Z,16.87
2018-10-17T13:40:39.356Z,17.80
2018-10-17T13:43:21.046Z,18.17
2018-10-17T13:46:02.571Z,17.77
2018-10-17T13:48:44.269Z,17.33
2018-10-17T13:51:25.781Z,18.23
2018-10-17T13:54:07.629Z,17.47
2018-10-17T13:56:49.087Z,18.77
2018-10-17T13:59:30.942Z,15.87
2018-10-17T14:02:12.850Z,17.10
2018-10-17T14:04:54.523Z,16.33
2018-10-17T14:07:37.485Z,16.53
2018-10-17T14:10:20.093Z,15.87
2018-10-17T14:13:01.868Z,16.90
2018-10-17T14:15:43.679Z,15.63
2018-10-17T14:18:25.704Z,16.43
2018-10-17T14:21:08.562Z,17.03
2018-10-17T14:23:50.150Z,16.90
2018-10-17T14:26:32.441Z,17.97
2018-10-17T14:29:14.481Z,18.73
2018-10-17T14:31:56.357Z,17.77
2018-10-17T14:34:38.240Z,17.17
2018-10-17T14:37:20.345Z,16.93
2018-10-17T14:40:02.638Z,16.40
2018-10-17T14:42:44.803Z,17.53
2018-10-17T14:45:26.204Z,17.27
2018-10-17T14:48:08.420Z,19.37
2018-10-17T14:50:50.403Z,18.03
2018-10-17T14:53:32.311Z,18.03
2018-10-17T14:56:13.714Z,18.47
2018-10-17T14:58:55.416Z,17.83
2018-10-17T15:01:37.341Z,18.03
2018-10-17T15:04:18.787Z,17.30
2018-10-17T15:07:00.763Z,18.23
2018-10-17T15:09:42.451Z,17.53
2018-10-17T15:12:24.520Z,17.20
2018-10-17T15:15:07.392Z,18.17
2018-10-17T15:17:49.319Z,17.77
2018-10-17T15:20:30.999Z,19.30
2018-10-17T15:23:13.521Z,17.67
2018-10-17T15:25:55.024Z,17.93
2018-10-17T15:28:36.964Z,18.80
2018-10-17T15:31:18.677Z,18.53
2018-10-17T15:34:01.090Z,19.30
2018-10-17T15:36:43.046Z,19.37
2018-10-17T15:39:24.858Z,19.50
2018-10-17T15:42:07.534Z,20.37
2018-10-17T15:44:50.407Z,19.30
2018-10-17T15:47:32.162Z,19.47
2018-10-17T15:50:14.354Z,19.13
2018-10-17T15:52:56.300Z,19.90
2018-10-17T15:55:38.337Z,19.83
2018-10-17T15:58:20.048Z,22.27
2018-10-17T16:01:02.003Z,21.10
2018-10-17T16:03:44.282Z,31.07
2018-10-17T16:06:26.115Z,611.90
2018-10-17T16:09:11.262Z,333.57
2018-10-17T16:11:53.983Z,254.10
2018-10-17T16:14:35.763Z,188.00
2018-10-17T16:17:18.407Z,140.03
2018-10-17T16:20:00.952Z,104.37
2018-10-17T16:22:43.350Z,26.23
2018-10-17T16:25:25.547Z,23.17
2018-10-17T16:28:07.149Z,23.00
2018-10-17T16:30:49.708Z,22.60
2018-10-17T16:33:31.321Z,23.63
2018-10-17T16:36:14.755Z,24.03
2018-10-17T16:38:57.068Z,24.03
2018-10-17T16:41:38.847Z,24.93
2018-10-17T16:44:21.395Z,28.03
2018-10-17T16:47:03.020Z,27.20
2018-10-17T16:49:45.592Z,26.80
2018-10-17T16:52:27.292Z,27.53
2018-10-17T16:55:09.691Z,30.03
2018-10-17T16:57:51.765Z,28.33
2018-10-17T17:00:33.868Z,30.13
2018-10-17T17:03:15.515Z,30.60
2018-10-17T17:05:57.306Z,31.87
2018-10-17T17:08:39.252Z,32.63
2018-10-17T17:11:21.149Z,31.77
2018-10-17T17:14:04.460Z,31.70
2018-10-17T17:16:46.353Z,31.23
2018-10-17T17:19:29.331Z,31.27
2018-10-17T17:22:12.527Z,28.50
2018-10-17T17:24:54.191Z,30.60
2018-10-17T17:27:36.187Z,31.63
2018-10-17T17:30:19.457Z,30.80
2018-10-17T17:33:01.289Z,30.17
2018-10-17T17:35:43.451Z,32.27
2018-10-17T17:38:25.563Z,32.17
2018-10-17T17:41:08.042Z,32.07
2018-10-17T17:43:49.671Z,32.40
2018-10-17T17:46:31.623Z,33.13
2018-10-17T17:49:13.243Z,34.60
2018-10-17T17:51:55.423Z,34.30
2018-10-17T17:54:37.987Z,33.03
2018-10-17T17:57:19.398Z,36.13
2018-10-17T18:00:01.352Z,32.87
2018-10-17T18:02:43.445Z,32.60
2018-10-17T18:05:27.080Z,32.20
2018-10-17T18:08:08.618Z,31.83
2018-10-17T18:10:50.431Z,33.00
2018-10-17T18:13:32.062Z,32.20
2018-10-17T18:16:13.653Z,35.13
2018-10-17T18:18:55.672Z,35.68
2018-10-17T18:21:37.604Z,34.97
2018-10-17T18:24:19.834Z,36.40
2018-10-17T18:27:01.868Z,34.58
2018-10-17T18:29:43.739Z,34.23
2018-10-17T18:32:26.002Z,35.67
2018-10-17T18:35:07.891Z,33.30
2018-10-17T18:37:50.548Z,33.37
2018-10-17T18:40:32.140Z,36.70
2018-10-17T18:43:14.325Z,40.35
2018-10-17T18:45:56.386Z,36.77
2018-10-17T18:48:37.808Z,34.13
2018-10-17T18:51:20.218Z,32.75
2018-10-17T18:54:02.968Z,31.23
2018-10-17T18:56:45.209Z,30.72
2018-10-17T18:59:27.560Z,30.45
2018-10-17T19:02:09.448Z,31.80
2018-10-17T19:04:51.281Z,31.45
2018-10-17T19:07:32.956Z,35.07
2018-10-17T19:10:15.194Z,35.52
2018-10-17T19:12:56.959Z,33.18
2018-10-17T19:15:38.720Z,34.43
2018-10-17T19:18:21.223Z,34.65
2018-10-17T19:21:03.306Z,34.73
2018-10-17T19:23:45.510Z,33.23
2018-10-17T19:26:27.920Z,34.70
2018-10-17T19:29:09.706Z,33.67
2018-10-17T19:31:51.703Z,34.20
2018-10-17T19:34:33.517Z,34.20
2018-10-17T19:37:15.452Z,36.98
2018-10-17T19:39:57.518Z,38.45
2018-10-17T19:42:39.223Z,37.00
2018-10-17T19:45:21.559Z,38.70
2018-10-17T19:48:04.193Z,37.45
2018-10-17T19:50:47.188Z,37.15
2018-10-17T19:53:29.030Z,39.10
2018-10-17T19:56:10.841Z,39.08
2018-10-17T19:58:53.445Z,40.85
2018-10-17T20:01:41.927Z,41.42
2018-10-17T20:04:24.189Z,41.55
2018-10-17T20:07:07.155Z,39.42
2018-10-17T20:09:49.378Z,40.85
2018-10-17T20:12:31.621Z,41.80
2018-10-17T20:15:16.216Z,40.12
2018-10-17T20:17:58.954Z,40.73
2018-10-17T20:20:42.448Z,40.60
2018-10-17T20:23:27.119Z,40.12
2018-10-17T20:26:09.003Z,39.03
2018-10-17T20:28:51.226Z,40.70
2018-10-17T20:31:33.179Z,39.88
2018-10-17T20:34:15.939Z,40.40
2018-10-17T20:36:59.313Z,38.02
2018-10-17T20:39:41.926Z,39.45
2018-10-17T20:42:23.912Z,40.80
2018-10-17T20:45:06.813Z,39.33
2018-10-17T20:47:48.186Z,38.73
2018-10-17T20:50:30.796Z,41.02
2018-10-17T20:53:12.443Z,39.78
2018-10-17T20:55:54.881Z,40.15
2018-10-17T20:58:36.993Z,36.65
2018-10-17T21:01:18.935Z,38.95
2018-10-17T21:04:01.600Z,39.27
2018-10-17T21:06:43.561Z,39.40
2018-10-17T21:09:26.372Z,39.33
2018-10-17T21:12:08.632Z,39.50
2018-10-17T21:14:51.102Z,39.73
2018-10-17T21:17:33.202Z,37.55
2018-10-17T21:20:15.881Z,39.53
2018-10-17T21:22:58.414Z,37.95
2018-10-17T21:25:40.714Z,40.40
2018-10-17T21:28:22.414Z,40.43
2018-10-17T21:31:05.783Z,40.78
2018-10-17T21:33:47.468Z,38.75
2018-10-17T21:36:30.592Z,38.63
2018-10-17T21:39:13.552Z,38.92
2018-10-17T21:41:56.593Z,37.40
2018-10-17T21:44:39.231Z,36.77
2018-10-17T21:47:21.173Z,38.08
2018-10-17T21:50:04.309Z,36.88
2018-10-17T21:52:47.085Z,36.75
2018-10-17T21:55:29.535Z,39.38
2018-10-17T21:58:11.521Z,36.58
2018-10-17T22:00:53.858Z,36.90
2018-10-17T22:03:35.875Z,37.53
2018-10-17T22:06:18.333Z,38.17
2018-10-17T22:09:00.468Z,37.40
2018-10-17T22:11:43.094Z,38.75
2018-10-17T22:14:24.718Z,39.55
2018-10-17T22:17:07.939Z,39.30
2018-10-17T22:19:49.907Z,38.20
2018-10-17T22:22:31.816Z,38.08
2018-10-17T22:25:13.958Z,38.65
2018-10-17T22:27:56.119Z,38.58
2018-10-17T22:30:38.073Z,40.12
2018-10-17T22:33:19.947Z,38.55
2018-10-17T22:36:02.128Z,36.90
2018-10-17T22:38:44.507Z,38.92
2018-10-17T22:41:26.669Z,39.15
2018-10-17T22:44:08.900Z,38.90
2018-10-17T22:46:50.884Z,38.88
2018-10-17T22:49:33.002Z,39.67
2018-10-17T22:52:15.761Z,36.23
2018-10-17T22:54:57.967Z,38.13
2018-10-17T22:57:40.215Z,38.40
2018-10-17T23:00:22.753Z,41.13
2018-10-17T23:03:05.606Z,36.53
2018-10-17T23:05:47.327Z,39.23
2018-10-17T23:08:29.800Z,38.20
2018-10-17T23:11:11.671Z,39.78
2018-10-17T23:13:54.429Z,41.58
2018-10-17T23:16:36.796Z,41.00
2018-10-17T23:19:19.191Z,42.88
2018-10-17T23:22:01.483Z,41.40
2018-10-17T23:24:43.340Z,42.25
2018-10-17T23:27:25.374Z,41.63
2018-10-17T23:30:09.136Z,40.28
2018-10-17T23:32:51.324Z,41.13
2018-10-17T23:35:34.741Z,42.27
2018-10-17T23:38:18.040Z,40.28
2018-10-17T23:41:00.328Z,41.08
2018-10-17T23:43:42.294Z,41.02
2018-10-17T23:46:24.399Z,41.77
2018-10-17T23:49:06.872Z,41.55
2018-10-17T23:51:49.333Z,40.45
2018-10-17T23:54:31.871Z,41.50
2018-10-17T23:57:13.771Z,41.15
2018-10-17T23:59:56.276Z,39.78
